FPK weather

Fitch H Beach Airport
Charlotte, Michigan, United States

Public forecast

Using degrees Fahrenheit for public forecast. Weather courtesy of forecast.io.

Current aviation weather report (METAR) for Fitch H Beach Airport

Retrieved 2020/05/26 09:35 UTC (0 seconds ago):

KFPK 260935Z AUTO 00000KT 10SM CLR 19/18 A3003 RMK AO2 T01910182

Closest aviation forecast (TAF) to Fitch H Beach Airport

Closest forecast is Capital City Airport, 15.8 nm (29.2 km) NE. Retrieved 2020/05/26 06:42 UTC (3 hours ago):

TAF KLAN 260540Z 2606/2706 17004KT P6SM BKN250 FM260900 17004KT 3SM BR SCT200 FM261300 17005KT P6SM SCT035 FM261500 18007KT P6SM BKN040 FM262100 18007KT P6SM VCSH BKN050 FM270100 16005KT P6SM BKN250